sensor_id;sensor_type;location;lat;lon;timestamp;temperature;humidity
35313;DHT22;21425;50.454;30.466;2023-05-07T00:05:43;9.50;54.40
35313;DHT22;21425;50.454;30.466;2023-05-07T00:08:09;9.90;54.90
35313;DHT22;21425;50.454;30.466;2023-05-07T00:10:34;9.60;53.90
35313;DHT22;21425;50.454;30.466;2023-05-07T00:12:59;9.70;55.10
35313;DHT22;21425;50.454;30.466;2023-05-07T00:15:25;8.50;54.60
35313;DHT22;21425;50.454;30.466;2023-05-07T00:17:51;9.60;54.40
35313;DHT22;21425;50.454;30.466;2023-05-07T00:22:42;8.70;54.90
35313;DHT22;21425;50.454;30.466;2023-05-07T00:25:08;9.40;54.30
35313;DHT22;21425;50.454;30.466;2023-05-07T00:27:33;5.20;52.30
35313;DHT22;21425;50.454;30.466;2023-05-07T00:29:59;9.60;55.00
35313;DHT22;21425;50.454;30.466;2023-05-07T00:32:24;8.20;54.90
35313;DHT22;21425;50.454;30.466;2023-05-07T00:34:50;8.80;55.70
35313;DHT22;21425;50.454;30.466;2023-05-07T00:37:16;8.40;55.10
35313;DHT22;21425;50.454;30.466;2023-05-07T00:39:41;9.30;56.00
35313;DHT22;21425;50.454;30.466;2023-05-07T00:42:07;8.70;55.80
35313;DHT22;21425;50.454;30.466;2023-05-07T00:44:33;9.00;56.00
35313;DHT22;21425;50.454;30.466;2023-05-07T00:46:58;9.00;55.90
35313;DHT22;21425;50.454;30.466;2023-05-07T00:51:52;9.20;56.80
35313;DHT22;21425;50.454;30.466;2023-05-07T00:54:18;5.40;53.80
35313;DHT22;21425;50.454;30.466;2023-05-07T00:56:44;9.30;57.10
35313;DHT22;21425;50.454;30.466;2023-05-07T01:01:36;5.80;55.40
35313;DHT22;21425;50.454;30.466;2023-05-07T01:04:02;8.80;57.10
35313;DHT22;21425;50.454;30.466;2023-05-07T01:06:27;8.90;57.60
35313;DHT22;21425;50.454;30.466;2023-05-07T01:08:54;8.60;57.30
35313;DHT22;21425;50.454;30.466;2023-05-07T01:11:21;5.90;56.30
35313;DHT22;21425;50.454;30.466;2023-05-07T01:13:47;9.30;57.80
35313;DHT22;21425;50.454;30.466;2023-05-07T01:21:05;5.00;56.40
35313;DHT22;21425;50.454;30.466;2023-05-07T01:25:58;9.80;59.10
35313;DHT22;21425;50.454;30.466;2023-05-07T01:30:51;5.10;55.80
35313;DHT22;21425;50.454;30.466;2023-05-07T01:33:18;9.00;57.80
35313;DHT22;21425;50.454;30.466;2023-05-07T01:35:45;5.00;56.10
35313;DHT22;21425;50.454;30.466;2023-05-07T01:38:11;5.20;56.20
35313;DHT22;21425;50.454;30.466;2023-05-07T01:40:37;9.20;58.40
35313;DHT22;21425;50.454;30.466;2023-05-07T01:43:03;4.90;56.50
35313;DHT22;21425;50.454;30.466;2023-05-07T01:47:54;8.40;58.60
35313;DHT22;21425;50.454;30.466;2023-05-07T01:50:20;8.80;58.90
35313;DHT22;21425;50.454;30.466;2023-05-07T01:52:46;5.20;56.90
35313;DHT22;21425;50.454;30.466;2023-05-07T01:55:12;9.70;59.40
35313;DHT22;21425;50.454;30.466;2023-05-07T01:57:37;5.30;57.50
35313;DHT22;21425;50.454;30.466;2023-05-07T02:00:03;9.50;59.90
35313;DHT22;21425;50.454;30.466;2023-05-07T02:02:30;6.00;58.10
35313;DHT22;21425;50.454;30.466;2023-05-07T02:04:56;9.30;59.80
35313;DHT22;21425;50.454;30.466;2023-05-07T02:07:21;9.80;60.00
35313;DHT22;21425;50.454;30.466;2023-05-07T02:12:13;8.80;60.10
35313;DHT22;21425;50.454;30.466;2023-05-07T02:17:04;8.60;60.00
35313;DHT22;21425;50.454;30.466;2023-05-07T02:21:55;6.00;58.70
35313;DHT22;21425;50.454;30.466;2023-05-07T02:24:21;9.50;59.20
35313;DHT22;21425;50.454;30.466;2023-05-07T02:31:38;6.10;59.10
35313;DHT22;21425;50.454;30.466;2023-05-07T02:34:03;6.80;60.10
35313;DHT22;21425;50.454;30.466;2023-05-07T02:43:47;5.80;59.60
35313;DHT22;21425;50.454;30.466;2023-05-07T02:46:12;5.30;59.70
35313;DHT22;21425;50.454;30.466;2023-05-07T02:51:04;9.50;63.60
35313;DHT22;21425;50.454;30.466;2023-05-07T02:55:57;8.40;61.90
35313;DHT22;21425;50.454;30.466;2023-05-07T02:58:22;9.80;62.70
35313;DHT22;21425;50.454;30.466;2023-05-07T03:03:14;9.80;62.90
35313;DHT22;21425;50.454;30.466;2023-05-07T03:05:40;5.20;60.70
35313;DHT22;21425;50.454;30.466;2023-05-07T03:08:05;5.70;61.60
35313;DHT22;21425;50.454;30.466;2023-05-07T03:10:31;5.80;61.90
35313;DHT22;21425;50.454;30.466;2023-05-07T03:12:56;6.10;61.90
35313;DHT22;21425;50.454;30.466;2023-05-07T03:15:22;5.50;61.20
35313;DHT22;21425;50.454;30.466;2023-05-07T03:17:48;5.60;60.80
35313;DHT22;21425;50.454;30.466;2023-05-07T03:20:13;6.20;60.80
35313;DHT22;21425;50.454;30.466;2023-05-07T03:25:05;8.90;62.50
35313;DHT22;21425;50.454;30.466;2023-05-07T03:29:56;5.40;59.30
35313;DHT22;21425;50.454;30.466;2023-05-07T03:32:22;9.60;61.70
35313;DHT22;21425;50.454;30.466;2023-05-07T03:34:47;9.40;62.50
35313;DHT22;21425;50.454;30.466;2023-05-07T03:37:13;5.40;59.60
35313;DHT22;21425;50.454;30.466;2023-05-07T03:39:38;5.30;57.10
35313;DHT22;21425;50.454;30.466;2023-05-07T03:42:04;8.60;59.50
35313;DHT22;21425;50.454;30.466;2023-05-07T03:44:29;8.70;59.40
35313;DHT22;21425;50.454;30.466;2023-05-07T03:46:55;5.30;57.60
35313;DHT22;21425;50.454;30.466;2023-05-07T03:49:20;5.20;57.10
35313;DHT22;21425;50.454;30.466;2023-05-07T03:51:46;8.90;58.10
35313;DHT22;21425;50.454;30.466;2023-05-07T03:54:11;5.40;56.40
35313;DHT22;21425;50.454;30.466;2023-05-07T03:56:37;8.90;57.40
35313;DHT22;21425;50.454;30.466;2023-05-07T03:59:02;9.00;57.20
35313;DHT22;21425;50.454;30.466;2023-05-07T04:01:28;5.40;55.10
35313;DHT22;21425;50.454;30.466;2023-05-07T04:03:53;9.10;57.00
35313;DHT22;21425;50.454;30.466;2023-05-07T04:06:19;9.10;57.30
35313;DHT22;21425;50.454;30.466;2023-05-07T04:08:44;5.40;55.30
35313;DHT22;21425;50.454;30.466;2023-05-07T04:13:38;5.50;56.00
35313;DHT22;21425;50.454;30.466;2023-05-07T04:20:55;9.30;57.70
35313;DHT22;21425;50.454;30.466;2023-05-07T04:23:21;8.80;57.60
35313;DHT22;21425;50.454;30.466;2023-05-07T04:28:12;5.10;56.60
35313;DHT22;21425;50.454;30.466;2023-05-07T04:30:38;8.80;58.70
35313;DHT22;21425;50.454;30.466;2023-05-07T04:33:03;9.00;59.00
35313;DHT22;21425;50.454;30.466;2023-05-07T04:35:29;5.80;57.60
35313;DHT22;21425;50.454;30.466;2023-05-07T04:37:54;9.90;59.70
35313;DHT22;21425;50.454;30.466;2023-05-07T04:40:20;5.40;57.80
35313;DHT22;21425;50.454;30.466;2023-05-07T04:42:45;8.40;59.20
35313;DHT22;21425;50.454;30.466;2023-05-07T04:45:11;8.90;59.30
35313;DHT22;21425;50.454;30.466;2023-05-07T04:47:37;9.20;59.70
35313;DHT22;21425;50.454;30.466;2023-05-07T04:52:29;8.80;59.00
35313;DHT22;21425;50.454;30.466;2023-05-07T04:57:21;9.60;60.20
35313;DHT22;21425;50.454;30.466;2023-05-07T04:59:46;9.90;60.90
35313;DHT22;21425;50.454;30.466;2023-05-07T05:02:11;8.60;59.90
35313;DHT22;21425;50.454;30.466;2023-05-07T05:04:37;8.10;60.50
35313;DHT22;21425;50.454;30.466;2023-05-07T05:07:02;9.40;61.60
35313;DHT22;21425;50.454;30.466;2023-05-07T05:11:57;9.90;61.80
35313;DHT22;21425;50.454;30.466;2023-05-07T05:14:22;9.20;61.20
35313;DHT22;21425;50.454;30.466;2023-05-07T05:16:48;9.60;61.40
35313;DHT22;21425;50.454;30.466;2023-05-07T05:19:13;9.60;61.60
35313;DHT22;21425;50.454;30.466;2023-05-07T05:21:39;10.00;62.00
35313;DHT22;21425;50.454;30.466;2023-05-07T05:26:30;8.10;58.70
35313;DHT22;21425;50.454;30.466;2023-05-07T05:28:55;8.20;58.50
35313;DHT22;21425;50.454;30.466;2023-05-07T05:31:21;8.30;57.70
35313;DHT22;21425;50.454;30.466;2023-05-07T05:36:12;8.50;55.30
35313;DHT22;21425;50.454;30.466;2023-05-07T05:38:38;9.90;55.50
35313;DHT22;21425;50.454;30.466;2023-05-07T05:45:56;10.20;54.40
35313;DHT22;21425;50.454;30.466;2023-05-07T05:48:22;10.00;53.70
35313;DHT22;21425;50.454;30.466;2023-05-07T05:50:48;8.70;53.20
35313;DHT22;21425;50.454;30.466;2023-05-07T05:53:13;9.00;53.80
35313;DHT22;21425;50.454;30.466;2023-05-07T06:00:30;8.50;51.90
35313;DHT22;21425;50.454;30.466;2023-05-07T06:05:22;8.60;50.70
35313;DHT22;21425;50.454;30.466;2023-05-07T06:07:47;9.60;50.60
35313;DHT22;21425;50.454;30.466;2023-05-07T06:10:13;9.20;49.80
35313;DHT22;21425;50.454;30.466;2023-05-07T06:12:39;10.40;50.50
35313;DHT22;21425;50.454;30.466;2023-05-07T06:19:56;8.60;50.40
35313;DHT22;21425;50.454;30.466;2023-05-07T06:22:22;9.00;50.30
35313;DHT22;21425;50.454;30.466;2023-05-07T06:24:48;10.10;50.00
35313;DHT22;21425;50.454;30.466;2023-05-07T06:27:13;10.00;50.50
35313;DHT22;21425;50.454;30.466;2023-05-07T06:29:38;8.30;49.60
35313;DHT22;21425;50.454;30.466;2023-05-07T06:51:32;8.30;47.30
35313;DHT22;21425;50.454;30.466;2023-05-07T06:53:57;8.90;47.10
35313;DHT22;21425;50.454;30.466;2023-05-07T06:58:48;13.00;48.40
35313;DHT22;21425;50.454;30.466;2023-05-07T07:01:14;8.50;45.30
35313;DHT22;21425;50.454;30.466;2023-05-07T07:03:40;8.40;45.20
35313;DHT22;21425;50.454;30.466;2023-05-07T07:08:31;12.90;46.00
35313;DHT22;21425;50.454;30.466;2023-05-07T07:13:23;11.70;44.80
35313;DHT22;21425;50.454;30.466;2023-05-07T07:15:48;12.70;44.70
35313;DHT22;21425;50.454;30.466;2023-05-07T07:18:14;12.10;44.00
35313;DHT22;21425;50.454;30.466;2023-05-07T07:20:39;13.00;44.90
35313;DHT22;21425;50.454;30.466;2023-05-07T07:23:05;13.10;44.90
35313;DHT22;21425;50.454;30.466;2023-05-07T07:27:56;11.90;44.00
35313;DHT22;21425;50.454;30.466;2023-05-07T07:30:22;12.20;43.90
35313;DHT22;21425;50.454;30.466;2023-05-07T07:35:13;13.10;45.10
35313;DHT22;21425;50.454;30.466;2023-05-07T07:37:39;8.30;41.70
35313;DHT22;21425;50.454;30.466;2023-05-07T07:40:04;12.00;42.90
35313;DHT22;21425;50.454;30.466;2023-05-07T07:42:30;11.90;42.70
35313;DHT22;21425;50.454;30.466;2023-05-07T07:47:22;11.70;41.10
35313;DHT22;21425;50.454;30.466;2023-05-07T07:57:05;12.50;39.50
35313;DHT22;21425;50.454;30.466;2023-05-07T07:59:31;11.40;39.30
35313;DHT22;21425;50.454;30.466;2023-05-07T08:06:48;11.40;38.40
35313;DHT22;21425;50.454;30.466;2023-05-07T08:11:39;12.60;39.90
35313;DHT22;21425;50.454;30.466;2023-05-07T09:05:10;11.60;38.50
35313;DHT22;21425;50.454;30.466;2023-05-07T09:07:35;12.30;38.70
35313;DHT22;21425;50.454;30.466;2023-05-07T09:17:19;11.70;37.90
35313;DHT22;21425;50.454;30.466;2023-05-07T09:39:22;12.90;38.00
35313;DHT22;21425;50.454;30.466;2023-05-07T11:56:11;12.40;33.80
35313;DHT22;21425;50.454;30.466;2023-05-07T13:01:54;12.30;34.00
35313;DHT22;21425;50.454;30.466;2023-05-07T13:45:42;13.10;33.90
35313;DHT22;21425;50.454;30.466;2023-05-07T13:53:00;12.30;32.60
35313;DHT22;21425;50.454;30.466;2023-05-07T14:12:27;11.70;32.50
35313;DHT22;21425;50.454;30.466;2023-05-07T14:14:53;13.60;34.00
35313;DHT22;21425;50.454;30.466;2023-05-07T14:46:31;12.30;35.50
35313;DHT22;21425;50.454;30.466;2023-05-07T14:58:40;12.50;36.30
35313;DHT22;21425;50.454;30.466;2023-05-07T15:01:06;12.20;36.40
35313;DHT22;21425;50.454;30.466;2023-05-07T15:03:31;8.80;34.70
35313;DHT22;21425;50.454;30.466;2023-05-07T15:08:23;12.50;36.50
35313;DHT22;21425;50.454;30.466;2023-05-07T15:27:49;13.50;37.40
35313;DHT22;21425;50.454;30.466;2023-05-07T15:30:15;13.20;37.00
35313;DHT22;21425;50.454;30.466;2023-05-07T15:32:41;12.60;37.00
35313;DHT22;21425;50.454;30.466;2023-05-07T15:35:07;13.30;37.50
35313;DHT22;21425;50.454;30.466;2023-05-07T15:39:58;9.10;35.70
35313;DHT22;21425;50.454;30.466;2023-05-07T15:42:24;12.60;37.30
35313;DHT22;21425;50.454;30.466;2023-05-07T15:49:41;12.90;37.50
35313;DHT22;21425;50.454;30.466;2023-05-07T15:52:07;13.70;38.00
35313;DHT22;21425;50.454;30.466;2023-05-07T15:54:35;12.80;37.70
35313;DHT22;21425;50.454;30.466;2023-05-07T15:57:00;12.70;37.90
35313;DHT22;21425;50.454;30.466;2023-05-07T16:01:54;8.90;35.30
35313;DHT22;21425;50.454;30.466;2023-05-07T16:04:19;8.70;35.10
35313;DHT22;21425;50.454;30.466;2023-05-07T16:06:45;12.60;37.50
35313;DHT22;21425;50.454;30.466;2023-05-07T16:09:12;8.90;36.30
35313;DHT22;21425;50.454;30.466;2023-05-07T16:18:55;8.60;39.00
35313;DHT22;21425;50.454;30.466;2023-05-07T16:21:21;9.10;40.00
35313;DHT22;21425;50.454;30.466;2023-05-07T16:23:47;12.50;40.90
35313;DHT22;21425;50.454;30.466;2023-05-07T16:26:12;13.20;42.70
35313;DHT22;21425;50.454;30.466;2023-05-07T16:31:06;13.80;43.80
35313;DHT22;21425;50.454;30.466;2023-05-07T16:33:32;13.50;43.80
35313;DHT22;21425;50.454;30.466;2023-05-07T16:35:58;8.50;41.80
35313;DHT22;21425;50.454;30.466;2023-05-07T16:38:24;9.10;42.60
35313;DHT22;21425;50.454;30.466;2023-05-07T16:45:43;9.30;45.20
35313;DHT22;21425;50.454;30.466;2023-05-07T16:53:01;13.40;47.70
35313;DHT22;21425;50.454;30.466;2023-05-07T17:00:18;8.30;46.20
35313;DHT22;21425;50.454;30.466;2023-05-07T17:02:44;8.60;46.40
35313;DHT22;21425;50.454;30.466;2023-05-07T17:05:10;9.60;47.20
35313;DHT22;21425;50.454;30.466;2023-05-07T17:07:36;8.50;46.60
35313;DHT22;21425;50.454;30.466;2023-05-07T17:10:02;12.00;48.30
35313;DHT22;21425;50.454;30.466;2023-05-07T17:12:27;9.00;46.60
35313;DHT22;21425;50.454;30.466;2023-05-07T17:14:53;8.70;46.60
35313;DHT22;21425;50.454;30.466;2023-05-07T17:17:19;9.50;47.40
35313;DHT22;21425;50.454;30.466;2023-05-07T17:24:36;12.50;48.50
35313;DHT22;21425;50.454;30.466;2023-05-07T17:27:02;8.70;46.30
35313;DHT22;21425;50.454;30.466;2023-05-07T17:31:53;10.40;47.50
35313;DHT22;21425;50.454;30.466;2023-05-07T17:34:18;8.60;47.00
35313;DHT22;21425;50.454;30.466;2023-05-07T17:36:44;10.10;47.50
35313;DHT22;21425;50.454;30.466;2023-05-07T17:41:36;12.50;47.10
35313;DHT22;21425;50.454;30.466;2023-05-07T17:44:02;8.50;46.50
35313;DHT22;21425;50.454;30.466;2023-05-07T17:48:53;9.30;46.70
35313;DHT22;21425;50.454;30.466;2023-05-07T17:51:20;9.60;46.80
35313;DHT22;21425;50.454;30.466;2023-05-07T17:56:11;10.30;47.10
35313;DHT22;21425;50.454;30.466;2023-05-07T17:58:37;8.60;46.40
35313;DHT22;21425;50.454;30.466;2023-05-07T18:03:28;8.60;47.00
35313;DHT22;21425;50.454;30.466;2023-05-07T18:05:54;8.80;46.30
35313;DHT22;21425;50.454;30.466;2023-05-07T18:08:20;8.80;46.80
35313;DHT22;21425;50.454;30.466;2023-05-07T18:10:46;8.90;47.10
35313;DHT22;21425;50.454;30.466;2023-05-07T18:13:12;8.70;47.10
35313;DHT22;21425;50.454;30.466;2023-05-07T18:15:37;9.00;47.60
35313;DHT22;21425;50.454;30.466;2023-05-07T18:18:03;9.60;47.90
35313;DHT22;21425;50.454;30.466;2023-05-07T18:20:28;9.10;47.50
35313;DHT22;21425;50.454;30.466;2023-05-07T18:22:54;10.60;48.40
35313;DHT22;21425;50.454;30.466;2023-05-07T18:30:12;8.40;47.60
35313;DHT22;21425;50.454;30.466;2023-05-07T18:32:37;9.90;47.90
35313;DHT22;21425;50.454;30.466;2023-05-07T18:35:03;9.60;47.50
35313;DHT22;21425;50.454;30.466;2023-05-07T18:44:47;9.60;48.90
35313;DHT22;21425;50.454;30.466;2023-05-07T18:47:12;9.80;48.70
35313;DHT22;21425;50.454;30.466;2023-05-07T18:52:04;9.50;48.30
35313;DHT22;21425;50.454;30.466;2023-05-07T18:54:30;9.90;49.10
35313;DHT22;21425;50.454;30.466;2023-05-07T18:56:55;9.60;49.40
35313;DHT22;21425;50.454;30.466;2023-05-07T19:01:47;8.70;49.00
35313;DHT22;21425;50.454;30.466;2023-05-07T19:04:12;10.10;49.80
35313;DHT22;21425;50.454;30.466;2023-05-07T19:06:38;8.90;49.20
35313;DHT22;21425;50.454;30.466;2023-05-07T19:16:21;8.90;49.00
35313;DHT22;21425;50.454;30.466;2023-05-07T19:18:46;9.40;48.60
35313;DHT22;21425;50.454;30.466;2023-05-07T19:21:12;9.10;49.30
35313;DHT22;21425;50.454;30.466;2023-05-07T19:23:38;9.20;48.90
35313;DHT22;21425;50.454;30.466;2023-05-07T19:26:07;9.50;49.00
35313;DHT22;21425;50.454;30.466;2023-05-07T19:28:33;8.70;48.90
35313;DHT22;21425;50.454;30.466;2023-05-07T19:38:18;8.70;49.00
35313;DHT22;21425;50.454;30.466;2023-05-07T19:45:35;8.60;48.80
35313;DHT22;21425;50.454;30.466;2023-05-07T19:48:01;10.60;50.10
35313;DHT22;21425;50.454;30.466;2023-05-07T19:50:27;9.30;49.10
35313;DHT22;21425;50.454;30.466;2023-05-07T19:55:18;9.80;49.20
35313;DHT22;21425;50.454;30.466;2023-05-07T19:57:44;9.50;49.10
35313;DHT22;21425;50.454;30.466;2023-05-07T20:00:14;10.20;49.60
35313;DHT22;21425;50.454;30.466;2023-05-07T20:02:40;10.10;49.70
35313;DHT22;21425;50.454;30.466;2023-05-07T20:05:05;9.00;48.20
35313;DHT22;21425;50.454;30.466;2023-05-07T20:07:31;10.30;50.00
35313;DHT22;21425;50.454;30.466;2023-05-07T20:09:57;9.10;49.30
35313;DHT22;21425;50.454;30.466;2023-05-07T20:24:35;9.60;49.60
35313;DHT22;21425;50.454;30.466;2023-05-07T20:27:00;8.60;49.50
35313;DHT22;21425;50.454;30.466;2023-05-07T20:29:28;10.70;50.20
35313;DHT22;21425;50.454;30.466;2023-05-07T20:31:53;9.20;49.80
35313;DHT22;21425;50.454;30.466;2023-05-07T20:34:19;9.80;49.80
35313;DHT22;21425;50.454;30.466;2023-05-07T20:36:44;9.80;49.70
35313;DHT22;21425;50.454;30.466;2023-05-07T20:39:10;8.70;49.50
35313;DHT22;21425;50.454;30.466;2023-05-07T20:44:04;9.80;49.50
35313;DHT22;21425;50.454;30.466;2023-05-07T20:46:30;10.60;50.00
35313;DHT22;21425;50.454;30.466;2023-05-07T20:48:55;10.20;49.90
35313;DHT22;21425;50.454;30.466;2023-05-07T20:51:21;10.00;50.30
35313;DHT22;21425;50.454;30.466;2023-05-07T20:53:46;10.70;51.00
35313;DHT22;21425;50.454;30.466;2023-05-07T20:56:12;10.30;51.50
35313;DHT22;21425;50.454;30.466;2023-05-07T20:58:37;10.50;52.20
35313;DHT22;21425;50.454;30.466;2023-05-07T21:01:03;10.60;52.70
35313;DHT22;21425;50.454;30.466;2023-05-07T21:03:29;8.80;52.20
35313;DHT22;21425;50.454;30.466;2023-05-07T21:05:55;9.00;52.20
35313;DHT22;21425;50.454;30.466;2023-05-07T21:08:22;10.30;52.60
35313;DHT22;21425;50.454;30.466;2023-05-07T21:13:14;9.30;52.60
35313;DHT22;21425;50.454;30.466;2023-05-07T21:20:31;8.90;52.60
35313;DHT22;21425;50.454;30.466;2023-05-07T21:25:22;9.90;53.10
35313;DHT22;21425;50.454;30.466;2023-05-07T21:27:48;8.40;52.80
35313;DHT22;21425;50.454;30.466;2023-05-07T21:30:13;8.50;52.90
35313;DHT22;21425;50.454;30.466;2023-05-07T21:32:39;8.50;51.50
35313;DHT22;21425;50.454;30.466;2023-05-07T21:39:56;8.50;52.50
35313;DHT22;21425;50.454;30.466;2023-05-07T21:42:23;8.80;52.50
35313;DHT22;21425;50.454;30.466;2023-05-07T21:44:49;9.40;52.90
35313;DHT22;21425;50.454;30.466;2023-05-07T21:47:14;8.60;52.40
35313;DHT22;21425;50.454;30.466;2023-05-07T21:52:09;9.40;53.10
35313;DHT22;21425;50.454;30.466;2023-05-07T21:54:35;10.50;53.30
35313;DHT22;21425;50.454;30.466;2023-05-07T21:57:00;9.60;53.20
35313;DHT22;21425;50.454;30.466;2023-05-07T21:59:26;10.20;53.40
35313;DHT22;21425;50.454;30.466;2023-05-07T22:04:18;9.50;52.80
35313;DHT22;21425;50.454;30.466;2023-05-07T22:06:44;9.50;52.80
35313;DHT22;21425;50.454;30.466;2023-05-07T22:09:10;8.50;52.00
35313;DHT22;21425;50.454;30.466;2023-05-07T22:14:01;10.20;52.70
35313;DHT22;21425;50.454;30.466;2023-05-07T22:18:53;8.60;51.90
35313;DHT22;21425;50.454;30.466;2023-05-07T22:21:18;8.80;52.30
35313;DHT22;21425;50.454;30.466;2023-05-07T22:23:44;10.20;52.80
35313;DHT22;21425;50.454;30.466;2023-05-07T22:26:10;10.80;53.20
35313;DHT22;21425;50.454;30.466;2023-05-07T22:28:36;10.80;53.10
35313;DHT22;21425;50.454;30.466;2023-05-07T22:31:01;9.70;52.70
35313;DHT22;21425;50.454;30.466;2023-05-07T22:33:26;9.30;52.30
35313;DHT22;21425;50.454;30.466;2023-05-07T22:38:18;10.30;51.90
35313;DHT22;21425;50.454;30.466;2023-05-07T22:40:44;9.80;51.80
35313;DHT22;21425;50.454;30.466;2023-05-07T22:43:09;8.90;51.50
35313;DHT22;21425;50.454;30.466;2023-05-07T22:45:35;10.30;52.20
35313;DHT22;21425;50.454;30.466;2023-05-07T22:48:00;9.50;51.80
35313;DHT22;21425;50.454;30.466;2023-05-07T22:50:26;8.90;50.90
35313;DHT22;21425;50.454;30.466;2023-05-07T22:52:51;9.60;51.00
35313;DHT22;21425;50.454;30.466;2023-05-07T22:55:17;9.70;51.70
35313;DHT22;21425;50.454;30.466;2023-05-07T22:57:42;9.90;51.60
35313;DHT22;21425;50.454;30.466;2023-05-07T23:00:08;9.90;51.50
35313;DHT22;21425;50.454;30.466;2023-05-07T23:05:00;8.60;52.00
35313;DHT22;21425;50.454;30.466;2023-05-07T23:07:26;9.50;52.00
35313;DHT22;21425;50.454;30.466;2023-05-07T23:09:52;8.80;51.10
35313;DHT22;21425;50.454;30.466;2023-05-07T23:12:17;9.40;51.70
35313;DHT22;21425;50.454;30.466;2023-05-07T23:14:43;10.00;51.30
35313;DHT22;21425;50.454;30.466;2023-05-07T23:17:08;10.50;52.00
35313;DHT22;21425;50.454;30.466;2023-05-07T23:21:59;10.10;51.60
35313;DHT22;21425;50.454;30.466;2023-05-07T23:24:25;9.40;51.10
35313;DHT22;21425;50.454;30.466;2023-05-07T23:26:50;9.30;51.00
35313;DHT22;21425;50.454;30.466;2023-05-07T23:34:07;8.60;50.90
35313;DHT22;21425;50.454;30.466;2023-05-07T23:36:33;9.60;51.10
35313;DHT22;21425;50.454;30.466;2023-05-07T23:38:58;9.80;51.60
35313;DHT22;21425;50.454;30.466;2023-05-07T23:41:24;9.40;51.90
35313;DHT22;21425;50.454;30.466;2023-05-07T23:43:50;10.10;52.10
35313;DHT22;21425;50.454;30.466;2023-05-07T23:48:41;8.80;51.90
35313;DHT22;21425;50.454;30.466;2023-05-07T23:51:06;5.80;50.40
35313;DHT22;21425;50.454;30.466;2023-05-07T23:53:32;10.20;52.70
35313;DHT22;21425;50.454;30.466;2023-05-07T23:58:23;9.80;53.50
